アデレード の空港の天気 - METARとTAF

アデレード空港 ( YPAD / ADL ) - オーストラリア 南オーストラリア州アデレード
飛行場実況気象(Metar)
観測時間06/18 05:00 ACST (06/17 19:30 UTC)
風向・風速南西 7m/s
視程10km以上
天気現象
少しの雲 雲底高度 1010m
気温12℃
湿度62%
気圧1021hPa
METARYPAD 171930Z 22014KT 9999 FEW033 12/05 Q1021 NOSIG
過去の天気等 Google飛行場航空写真 Wunderground天気予報

過去48時間のMETAR

飛行場予報(TAF)
発表時間: 6/18 02:47 ACST (6/17 17:17 UTC)
予報対象時間: 18日3時 ACST ~ 19日9時 ACST
風向・風速南西 7m/s
視程10km以上
天気現象弱いしゅう雨
少しの雲 雲底高度 610m
全天の4割程度の雲 雲底高度 910m
18日9時 ACST から
風向・風速南南西 6m/s
視程10km以上
天気現象運行に影響にある天気現象が終了
少しの雲 雲底高度 1220m
18日17時 ACST から
風向・風速南南東 3m/s
視程10km以上
少しの雲 雲底高度 1220m
18日21時 ACST から
風向・風速不定 3m/s
視程10km以上
少しの雲 雲底高度 1220m
TAF YPAD 171717Z 1718/1824 23013KT 9999 -SHRA FEW020 SCT030
FM180000 21012KT 9999 NSW FEW040
FM180800 15006KT 9999 FEW040
FM181200 VRB05KT 9999 FEW040